createdAt,value
2022-09-28T05:02:49.237Z,99.90
2022-09-28T05:05:16.071Z,99.90
2022-09-28T05:07:42.921Z,99.90
2022-09-28T05:10:12.464Z,99.90
2022-09-28T05:12:39.229Z,99.90
2022-09-28T05:15:06.287Z,99.90
2022-09-28T05:17:33.027Z,99.90
2022-09-28T05:20:00.694Z,99.90
2022-09-28T05:22:27.430Z,99.90
2022-09-28T05:24:55.016Z,99.90
2022-09-28T05:27:21.934Z,99.90
2022-09-28T05:29:48.689Z,99.90
2022-09-28T05:32:16.837Z,99.90
2022-09-28T05:34:43.566Z,99.90
2022-09-28T05:37:10.294Z,99.90
2022-09-28T05:39:37.024Z,99.90
2022-09-28T05:42:03.802Z,99.90
2022-09-28T05:44:30.533Z,99.90
2022-09-28T05:46:57.294Z,99.90
2022-09-28T05:49:24.003Z,99.90
2022-09-28T05:51:50.774Z,99.90
2022-09-28T05:54:17.698Z,99.90
2022-09-28T05:56:44.700Z,99.90
2022-09-28T05:59:12.173Z,99.90
2022-09-28T06:01:39.264Z,99.90
2022-09-28T06:04:06.081Z,99.90
2022-09-28T06:06:32.823Z,99.90
2022-09-28T06:08:59.562Z,99.90
2022-09-28T06:11:27.131Z,99.90
2022-09-28T06:13:55.555Z,99.90
2022-09-28T06:16:22.364Z,99.90
2022-09-28T06:18:49.138Z,99.90
2022-09-28T06:21:15.877Z,99.90
2022-09-28T06:23:46.849Z,99.90
2022-09-28T06:26:16.393Z,99.90
2022-09-28T06:28:43.293Z,99.90
2022-09-28T06:31:10.323Z,99.10
2022-09-28T06:33:38.610Z,97.40
2022-09-28T06:36:05.575Z,95.50
2022-09-28T06:38:32.350Z,93.50
2022-09-28T06:40:59.221Z,90.80
2022-09-28T06:43:25.998Z,90.50
2022-09-28T06:45:53.161Z,88.90
2022-09-28T06:48:20.147Z,83.10
2022-09-28T06:50:47.608Z,80.00
2022-09-28T06:53:14.807Z,79.60
2022-09-28T06:55:42.649Z,75.60
2022-09-28T06:58:13.723Z,73.40
2022-09-28T07:00:40.770Z,73.60
2022-09-28T07:03:10.388Z,71.30
2022-09-28T07:05:37.297Z,71.20
2022-09-28T07:08:07.265Z,71.20
2022-09-28T07:10:34.081Z,68.60
2022-09-28T07:13:06.282Z,68.60
2022-09-28T07:15:34.578Z,66.70
2022-09-28T07:18:03.972Z,64.10
2022-09-28T07:20:46.251Z,63.90
2022-09-28T07:23:19.858Z,64.90
2022-09-28T07:25:48.056Z,64.20
2022-09-28T07:28:15.225Z,63.10
2022-09-28T07:30:43.366Z,62.80
2022-09-28T07:33:12.588Z,63.50
2022-09-28T07:35:39.403Z,63.40
2022-09-28T07:38:06.744Z,63.60
2022-09-28T07:40:52.443Z,64.10
2022-09-28T07:43:22.913Z,65.90
2022-09-28T07:45:54.020Z,67.20
2022-09-28T07:48:21.028Z,68.10
2022-09-28T07:50:50.258Z,67.80
2022-09-28T07:53:17.489Z,69.20
2022-09-28T07:55:44.262Z,70.30
2022-09-28T07:58:10.986Z,72.10
2022-09-28T08:00:38.294Z,73.30
2022-09-28T08:03:05.057Z,73.40
2022-09-28T08:05:32.127Z,74.30
2022-09-28T08:07:59.710Z,75.80
2022-09-28T08:10:26.743Z,76.50
2022-09-28T08:12:59.243Z,76.90
2022-09-28T08:15:29.602Z,77.70
2022-09-28T08:18:00.494Z,77.90
2022-09-28T08:20:51.571Z,77.80
2022-09-28T08:23:18.809Z,78.10
2022-09-28T08:25:49.416Z,78.60
2022-09-28T08:28:19.676Z,78.30
2022-09-28T08:30:46.863Z,79.00
2022-09-28T08:33:14.262Z,78.90
2022-09-28T08:35:41.851Z,79.30
2022-09-28T08:38:09.035Z,80.30
2022-09-28T08:40:41.967Z,81.30
2022-09-28T08:43:21.262Z,81.70
2022-09-28T08:45:48.037Z,81.80
2022-09-28T08:48:51.750Z,82.70
2022-09-28T08:51:27.573Z,83.60
2022-09-28T08:54:11.019Z,85.60
2022-09-28T08:56:44.935Z,85.50
2022-09-28T08:59:13.278Z,86.20
2022-09-28T09:02:06.092Z,86.70
2022-09-28T09:04:32.831Z,86.80
2022-09-28T09:07:19.786Z,86.20
2022-09-28T09:10:04.372Z,86.10
2022-09-28T09:12:40.126Z,86.80
2022-09-28T09:15:25.892Z,87.50
2022-09-28T09:18:11.484Z,88.10
2022-09-28T09:20:44.567Z,88.90
2022-09-28T09:23:18.510Z,89.40
2022-09-28T09:25:55.122Z,89.90
2022-09-28T09:28:38.284Z,90.10
2022-09-28T09:31:08.657Z,90.20
2022-09-28T09:33:41.349Z,90.10
2022-09-28T09:36:20.386Z,89.50
2022-09-28T09:38:52.493Z,89.40
2022-09-28T09:41:44.935Z,89.50
2022-09-28T09:44:33.633Z,88.70
2022-09-28T09:47:08.226Z,87.80
2022-09-28T09:49:37.937Z,87.60
2022-09-28T09:52:47.704Z,86.50
2022-09-28T09:55:29.701Z,86.20
2022-09-28T09:58:06.513Z,86.90
2022-09-28T10:00:33.268Z,86.50
2022-09-28T10:03:00.600Z,87.40
2022-09-28T10:05:29.306Z,87.50
2022-09-28T10:08:03.794Z,86.20
2022-09-28T10:10:35.646Z,86.20
2022-09-28T10:13:02.435Z,85.80
2022-09-28T10:15:32.983Z,84.70
2022-09-28T10:18:03.026Z,84.90
2022-09-28T10:20:31.790Z,84.70
2022-09-28T10:22:58.520Z,84.50
2022-09-28T10:25:25.330Z,84.80
2022-09-28T10:27:52.663Z,85.00
2022-09-28T10:30:23.322Z,84.70
2022-09-28T10:32:52.472Z,84.30
2022-09-28T10:35:19.177Z,83.60
2022-09-28T10:37:55.162Z,80.50
2022-09-28T10:40:30.446Z,80.20
2022-09-28T10:43:27.701Z,80.90
2022-09-28T10:46:07.800Z,81.50
2022-09-28T10:49:04.853Z,81.90
2022-09-28T10:51:45.097Z,81.30
2022-09-28T10:54:19.741Z,80.30
2022-09-28T10:56:46.745Z,80.80
2022-09-28T10:59:24.373Z,81.20
2022-09-28T11:01:58.367Z,80.30
2022-09-28T11:04:27.844Z,75.50
2022-09-28T11:09:31.445Z,76.30
2022-09-28T11:11:59.039Z,76.10
2022-09-28T11:14:42.483Z,70.80
2022-09-28T11:17:25.668Z,68.50
2022-09-28T11:19:53.802Z,67.60
2022-09-28T11:22:21.349Z,68.50
2022-09-28T11:24:48.993Z,68.50
2022-09-28T11:27:25.664Z,68.80
2022-09-28T11:29:59.102Z,69.70
2022-09-28T11:32:29.684Z,70.00
2022-09-28T11:35:00.495Z,70.00
2022-09-28T11:38:01.490Z,69.60
2022-09-28T11:40:42.275Z,70.60
2022-09-28T11:43:34.121Z,70.40
2022-09-28T11:46:37.157Z,70.90
2022-09-28T11:49:27.937Z,71.80
2022-09-28T11:51:55.553Z,72.00
2022-09-28T11:54:29.007Z,72.80
2022-09-28T11:56:56.091Z,72.60
2022-09-28T11:59:30.100Z,73.10
2022-09-28T12:01:57.538Z,73.80
2022-09-28T12:04:38.071Z,74.10
2022-09-28T12:07:07.690Z,74.30
2022-09-28T12:09:56.228Z,74.30
2022-09-28T12:12:39.475Z,74.30
2022-09-28T12:15:17.169Z,74.70
2022-09-28T12:17:48.292Z,74.50
2022-09-28T12:20:31.054Z,74.20
2022-09-28T12:23:31.756Z,73.50
2022-09-28T12:26:03.322Z,73.20
2022-09-28T12:28:47.940Z,73.00
2022-09-28T12:32:00.895Z,72.60
2022-09-28T12:34:27.712Z,73.40
2022-09-28T12:37:38.415Z,74.40
2022-09-28T12:40:35.451Z,75.00
2022-09-28T12:43:19.614Z,75.50
2022-09-28T12:46:17.677Z,75.50
2022-09-28T12:49:15.887Z,75.80
2022-09-28T12:51:48.452Z,76.10
2022-09-28T12:54:24.905Z,76.40
2022-09-28T12:57:02.252Z,76.60
2022-09-28T12:59:32.539Z,76.70
2022-09-28T13:02:08.546Z,76.90
2022-09-28T13:04:53.838Z,76.80
2022-09-28T13:07:25.305Z,77.10
2022-09-28T13:10:26.185Z,77.30
2022-09-28T13:12:59.060Z,77.40
2022-09-28T13:15:48.703Z,77.50
2022-09-28T13:18:36.654Z,77.40
2022-09-28T13:21:22.002Z,77.50
2022-09-28T13:23:48.975Z,77.60
2022-09-28T13:26:21.648Z,77.80
2022-09-28T13:28:48.398Z,77.60
2022-09-28T13:31:19.430Z,77.00
2022-09-28T13:33:46.137Z,76.80
2022-09-28T13:36:27.881Z,76.80
2022-09-28T13:38:59.427Z,75.90
2022-09-28T13:41:29.694Z,76.20
2022-09-28T13:44:24.402Z,76.30
2022-09-28T13:47:22.505Z,76.40
2022-09-28T13:49:52.597Z,76.70
2022-09-28T13:52:48.360Z,77.00
2022-09-28T13:55:44.239Z,76.90
2022-09-28T13:58:21.944Z,76.50
2022-09-28T14:00:56.150Z,76.00
2022-09-28T14:03:22.990Z,75.70
2022-09-28T14:06:21.095Z,74.80
2022-09-28T14:09:07.067Z,74.30
2022-09-28T14:11:36.973Z,74.10
2022-09-28T14:14:13.938Z,73.80
2022-09-28T14:16:41.433Z,73.20
2022-09-28T14:19:19.160Z,73.40
2022-09-28T14:21:49.984Z,73.20
2022-09-28T14:24:38.499Z,73.00
2022-09-28T14:27:33.395Z,73.20
2022-09-28T14:30:12.383Z,73.10
2022-09-28T14:32:46.302Z,72.10
2022-09-28T14:35:33.234Z,72.70
2022-09-28T14:38:33.922Z,72.70
2022-09-28T14:41:15.187Z,72.80
2022-09-28T14:43:44.986Z,73.00
2022-09-28T14:46:11.950Z,73.20
2022-09-28T14:48:43.198Z,72.50
2022-09-28T14:51:25.042Z,72.90
2022-09-28T14:53:52.413Z,72.90
2022-09-28T14:56:19.648Z,72.90
2022-09-28T14:58:46.645Z,71.70
2022-09-28T15:01:18.291Z,70.60
2022-09-28T15:03:45.068Z,70.90
2022-09-28T15:06:16.265Z,71.00
2022-09-28T15:08:43.093Z,71.50
2022-09-28T15:11:22.774Z,71.70
2022-09-28T15:13:50.081Z,72.20
2022-09-28T15:16:17.332Z,72.70
2022-09-28T15:19:13.366Z,73.40
2022-09-28T15:21:41.281Z,74.00
2022-09-28T15:24:28.013Z,74.60
2022-09-28T15:26:54.725Z,75.10
2022-09-28T15:29:22.903Z,76.30
2022-09-28T15:31:54.112Z,76.80
2022-09-28T15:34:46.622Z,76.50
2022-09-28T15:37:15.638Z,76.90
2022-09-28T15:39:42.554Z,77.60
2022-09-28T15:42:09.307Z,78.70
2022-09-28T15:44:37.182Z,78.60
2022-09-28T15:47:15.627Z,79.10
2022-09-28T15:49:59.009Z,79.70
2022-09-28T15:52:30.738Z,79.60
2022-09-28T15:54:57.541Z,79.60
2022-09-28T15:57:37.048Z,80.00
2022-09-28T16:00:28.857Z,80.20
2022-09-28T16:03:19.166Z,80.50
2022-09-28T16:05:58.487Z,80.80
2022-09-28T16:08:40.418Z,81.00
2022-09-28T16:11:31.431Z,81.60
2022-09-28T16:14:18.284Z,81.90
2022-09-28T16:16:48.507Z,82.00
2022-09-28T16:19:32.246Z,82.20
2022-09-28T16:21:59.596Z,82.60
2022-09-28T16:24:33.391Z,82.30
2022-09-28T16:27:05.440Z,82.00
2022-09-28T16:29:40.223Z,82.00
2022-09-28T16:32:25.595Z,81.90
2022-09-28T16:35:13.151Z,81.80
2022-09-28T16:37:43.715Z,81.60
2022-09-28T16:40:11.033Z,81.20
2022-09-28T16:42:44.418Z,81.30
2022-09-28T16:45:18.339Z,81.40
2022-09-28T16:47:46.854Z,81.50
2022-09-28T16:50:15.187Z,81.80
2022-09-28T16:53:11.442Z,82.10
2022-09-28T16:55:40.823Z,82.30
2022-09-28T16:58:08.186Z,82.50
2022-09-28T17:00:35.054Z,82.70
2022-09-28T17:03:04.294Z,83.00
2022-09-28T17:05:31.055Z,83.00
2022-09-28T17:08:02.131Z,83.20
2022-09-28T17:10:31.706Z,83.40
2022-09-28T17:12:59.102Z,83.80
2022-09-28T17:15:26.130Z,84.00
2022-09-28T17:17:53.242Z,84.10
2022-09-28T17:20:25.449Z,84.20
2022-09-28T17:22:52.208Z,84.30
2022-09-28T17:25:19.550Z,84.20
2022-09-28T17:27:46.839Z,84.50
2022-09-28T17:30:14.014Z,84.80
2022-09-28T17:32:47.195Z,84.90
2022-09-28T17:35:25.732Z,85.30
2022-09-28T17:37:52.707Z,85.70
2022-09-28T17:40:24.356Z,86.20
2022-09-28T17:42:51.881Z,86.30
2022-09-28T17:45:18.600Z,86.60
2022-09-28T17:47:45.487Z,87.00
2022-09-28T17:50:24.106Z,87.30
2022-09-28T17:52:52.353Z,87.60
2022-09-28T17:55:30.440Z,87.80
2022-09-28T17:57:58.147Z,88.50
2022-09-28T18:00:27.435Z,88.90
2022-09-28T18:02:55.442Z,89.20
2022-09-28T18:05:23.470Z,89.60
2022-09-28T18:07:50.789Z,90.00
2022-09-28T18:10:19.768Z,90.20
2022-09-28T18:12:47.024Z,90.20
2022-09-28T18:15:13.977Z,90.40
2022-09-28T18:17:40.894Z,90.60
2022-09-28T18:20:09.077Z,90.80
2022-09-28T18:22:36.078Z,91.10
2022-09-28T18:25:03.394Z,91.30
2022-09-28T18:27:30.485Z,91.30
2022-09-28T18:29:57.404Z,91.40
2022-09-28T18:32:24.245Z,91.60
2022-09-28T18:34:50.997Z,91.80
2022-09-28T18:37:17.837Z,91.90
2022-09-28T18:39:45.398Z,92.10
2022-09-28T18:42:13.286Z,92.10
2022-09-28T18:44:40.084Z,92.20
2022-09-28T18:47:06.971Z,92.30
2022-09-28T18:49:34.415Z,92.30
2022-09-28T18:52:01.586Z,92.40
2022-09-28T18:54:28.391Z,92.60
2022-09-28T18:56:56.482Z,92.80
2022-09-28T18:59:23.763Z,92.90
2022-09-28T19:01:51.297Z,93.10
2022-09-28T19:04:20.081Z,93.50
2022-09-28T19:06:54.363Z,93.70
2022-09-28T19:09:21.915Z,94.00
2022-09-28T19:11:49.170Z,94.20
2022-09-28T19:14:16.203Z,94.60
2022-09-28T19:16:44.051Z,94.80
2022-09-28T19:19:12.686Z,95.10
2022-09-28T19:21:40.670Z,95.30
2022-09-28T19:24:07.538Z,95.50
2022-09-28T19:26:34.306Z,95.90
2022-09-28T19:29:02.489Z,96.00
2022-09-28T19:31:29.730Z,96.00
2022-09-28T19:33:56.810Z,96.20
2022-09-28T19:36:24.645Z,96.20
2022-09-28T19:38:52.738Z,96.30
2022-09-28T19:41:49.523Z,96.30
2022-09-28T19:44:27.002Z,96.30
2022-09-28T19:47:07.463Z,96.20
2022-09-28T19:49:38.125Z,96.20
2022-09-28T19:52:13.989Z,96.20
2022-09-28T19:54:44.561Z,96.10
2022-09-28T19:57:12.705Z,96.10
2022-09-28T19:59:39.661Z,96.10
2022-09-28T20:02:06.946Z,96.00
2022-09-28T20:04:33.982Z,95.90
2022-09-28T20:07:01.874Z,96.10
2022-09-28T20:09:28.938Z,96.10
2022-09-28T20:11:55.791Z,96.30
2022-09-28T20:14:24.603Z,96.40
2022-09-28T20:16:55.174Z,96.50
2022-09-28T20:19:23.256Z,96.50
2022-09-28T20:21:50.200Z,96.60
2022-09-28T20:24:17.409Z,96.90
2022-09-28T20:26:44.758Z,97.00
2022-09-28T20:29:11.837Z,97.20
2022-09-28T20:31:38.869Z,97.20
2022-09-28T20:34:05.901Z,97.30
2022-09-28T20:36:32.848Z,97.30
2022-09-28T20:39:02.979Z,97.40
2022-09-28T20:41:34.766Z,97.60
2022-09-28T20:44:05.697Z,98.00
